Terminal Aerodrome Forecast
Issued by NWS

Home | Current Version | Previous Version | Text Only | Print | Product List | Glossary On
Versions: 1 2 3 4 5 6 7 8 9 10 11 12
000
FTUS46 KSTO 291124
TAFRBL
TAF
KRBL 291124Z 2912/3012 16020G30KT P6SM VCSH OVC100
     FM292000 16018G27KT P6SM BKN200
     FM300400 17010KT P6SM FEW250=

USA.gov is the U.S. government's official web portal to all federal, state and local government web resources and services.